首页
METAR-TAF:

METAR-TAF

机场 :

尼诺伊·阿基诺国际机场

马尼拉, 菲律宾

纬度: 14-31N, 经度: 121-00E, 海拔: 14米

当前天气观测

该预报发布于28分钟前的10:00 UTC
风速2节,风向多变
温度 28°C
湿度 89%
气压 1007 hPa
能见度10公里或以上
散云层高于2500英尺
多云层高于10000英尺

METAR: RPLL 211000Z VRB02KT 9999 SCT025 BKN100 28/26 Q1007 NOSIG RMK A2974

时间: 18:28 (10:28 UTC)

预报

该预报发布于5小时和28分钟前的05:00 UTC
预报有效从21日的 06点(UTC)到 22日的 12点(UTC)
风速5节,风向东转东南
能见度10公里或以上
少量云层高于2500英尺
散云层高于10000英尺
短暂存在
从 21日的 06点(UTC)到 21日的 12点(UTC)
风速10节,风向西南
能見度: 7000
少量云层高于2200英尺, 积雨云.
散云层高于2300英尺
多云层高于10000英尺
雷暴, 小雨
短暂存在
从 21日的 12点(UTC)到 21日的 18点(UTC)
风速5节,风向西南
少量云层高于2200英尺, 积雨云.
散云层高于2300英尺
多云层高于10000英尺
小阵雨
短暂存在
从 21日的 18点(UTC)到 21日的 24点(UTC)
风速2节,风向多变

TAF: RPLL 210500Z 2106/2212 12005KT 9999 FEW025 SCT100 TX34/2106Z TN27/2121Z TEMPO 2106/2112 22010KT 7000 -TSRA FEW022CB SCT023 BKN100 TEMPO 2112/2118 22005KT -SHRA FEW022CB SCT023 BKN100 TEMPO 2118/2124 VRB02KT

超过4000个机场的气象观测和天气预报(METAR&TAF报告)。

可查询的气象台以黄色和红色小点在地图上表示。

将鼠标移到小点上方,可查看气象台名称。

然后点击查看天气观测和预报。

如需切换地图:点击带黑十字的绿色按钮放大地图;点击带横线的绿色按钮缩小地图;或者点击绿色箭头查看邻近地区的地图。


METAR-TAF: